createdAt,value
2022-11-05T00:00:39.529Z,76.70
2022-11-05T00:03:25.596Z,76.80
2022-11-05T00:06:12.481Z,76.80
2022-11-05T00:08:59.977Z,76.80
2022-11-05T00:11:45.908Z,76.80
2022-11-05T00:14:32.243Z,76.80
2022-11-05T00:16:59.530Z,76.90
2022-11-05T00:19:26.634Z,76.90
2022-11-05T00:22:12.001Z,76.90
2022-11-05T00:24:57.572Z,76.90
2022-11-05T00:27:24.598Z,76.90
2022-11-05T00:29:52.171Z,76.90
2022-11-05T00:32:19.224Z,76.90
2022-11-05T00:34:46.184Z,76.90
2022-11-05T00:37:13.374Z,76.90
2022-11-05T00:39:40.385Z,76.90
2022-11-05T00:42:28.899Z,76.80
2022-11-05T00:45:02.139Z,76.80
2022-11-05T00:47:49.885Z,76.80
2022-11-05T00:50:21.027Z,76.80
2022-11-05T00:52:56.135Z,76.70
2022-11-05T00:55:38.021Z,76.70
2022-11-05T00:58:08.118Z,76.70
2022-11-05T01:00:38.312Z,77.00
2022-11-05T01:03:13.387Z,76.50
2022-11-05T01:05:47.440Z,76.60
2022-11-05T01:08:17.624Z,76.60
2022-11-05T01:10:54.805Z,76.60
2022-11-05T01:13:29.570Z,76.60
2022-11-05T01:15:57.893Z,76.70
2022-11-05T01:18:25.496Z,76.70
2022-11-05T01:20:52.607Z,76.70
2022-11-05T01:23:19.889Z,76.80
2022-11-05T01:25:47.603Z,76.80
2022-11-05T01:28:14.762Z,76.80
2022-11-05T01:33:45.132Z,76.90
2022-11-05T01:36:12.233Z,76.80
2022-11-05T01:38:39.955Z,76.80
2022-11-05T01:41:10.457Z,76.80
2022-11-05T01:43:54.620Z,76.90
2022-11-05T01:46:34.588Z,76.90
2022-11-05T01:49:17.355Z,76.80
2022-11-05T01:51:46.300Z,76.80
2022-11-05T01:54:18.537Z,76.80
2022-11-05T01:57:01.644Z,76.80
2022-11-05T01:59:52.365Z,76.80
2022-11-05T02:02:19.736Z,76.90
2022-11-05T02:04:54.233Z,76.70
2022-11-05T02:07:23.444Z,76.70
2022-11-05T02:10:02.083Z,76.70
2022-11-05T02:12:30.344Z,76.60
2022-11-05T02:14:58.303Z,76.60
2022-11-05T02:17:59.824Z,76.60
2022-11-05T02:20:40.448Z,76.80
2022-11-05T02:23:35.531Z,76.70
2022-11-05T02:26:40.344Z,76.70
2022-11-05T02:29:44.533Z,76.90
2022-11-05T02:32:37.855Z,76.80
2022-11-05T02:35:23.188Z,76.80
2022-11-05T02:37:55.263Z,76.80
2022-11-05T02:40:41.207Z,76.90
2022-11-05T02:43:23.687Z,77.10
2022-11-05T02:46:05.335Z,77.20
2022-11-05T02:48:51.032Z,77.10
2022-11-05T02:51:57.263Z,77.10
2022-11-05T02:55:06.913Z,77.20
2022-11-05T02:57:36.872Z,77.20
2022-11-05T03:00:40.940Z,77.10
2022-11-05T03:03:18.485Z,77.10
2022-11-05T03:06:35.261Z,77.20
2022-11-05T03:09:34.329Z,77.50
2022-11-05T03:12:57.209Z,77.30
2022-11-05T03:15:51.156Z,77.50
2022-11-05T03:18:51.398Z,77.40
2022-11-05T03:21:53.680Z,77.50
2022-11-05T03:24:37.061Z,77.30
2022-11-05T03:27:22.484Z,77.30
2022-11-05T03:30:08.573Z,77.30
2022-11-05T03:32:41.036Z,77.40
2022-11-05T03:35:27.771Z,77.20
2022-11-05T03:38:05.726Z,77.30
2022-11-05T03:40:35.479Z,77.30
2022-11-05T03:43:07.936Z,77.20
2022-11-05T03:45:45.240Z,77.20
2022-11-05T03:48:14.741Z,77.30
2022-11-05T03:51:03.208Z,77.20
2022-11-05T03:53:38.203Z,77.20
2022-11-05T03:56:31.281Z,77.20
2022-11-05T03:59:00.915Z,77.30
2022-11-05T04:01:29.877Z,77.20
2022-11-05T04:03:57.094Z,77.20
2022-11-05T04:06:42.963Z,77.20
2022-11-05T04:09:29.502Z,77.20
2022-11-05T04:12:15.067Z,77.20
2022-11-05T04:14:42.278Z,77.10
2022-11-05T04:17:10.026Z,77.10
2022-11-05T04:20:03.413Z,77.10
2022-11-05T04:22:54.437Z,77.10
2022-11-05T04:25:22.448Z,77.20
2022-11-05T04:27:49.565Z,77.20
2022-11-05T04:30:19.088Z,77.10
2022-11-05T04:33:06.519Z,77.10
2022-11-05T04:35:48.745Z,77.20
2022-11-05T04:38:20.483Z,77.10
2022-11-05T04:40:48.176Z,77.00
2022-11-05T04:43:19.155Z,77.40
2022-11-05T04:45:46.996Z,76.90
2022-11-05T04:48:14.111Z,77.00
2022-11-05T04:50:41.223Z,77.00
2022-11-05T04:53:08.467Z,77.10
2022-11-05T04:55:35.815Z,77.10
2022-11-05T04:58:02.829Z,77.20
2022-11-05T05:00:30.069Z,77.20
2022-11-05T05:02:57.211Z,77.20
2022-11-05T05:05:24.382Z,77.20
2022-11-05T05:07:51.515Z,77.20
2022-11-05T05:10:18.650Z,77.30
2022-11-05T05:12:45.761Z,77.30
2022-11-05T05:15:12.780Z,77.30
2022-11-05T05:17:40.115Z,77.30
2022-11-05T05:20:26.335Z,77.40
2022-11-05T05:22:56.875Z,77.40
2022-11-05T05:25:24.066Z,77.40
2022-11-05T05:27:51.528Z,77.40
2022-11-05T05:30:19.075Z,77.40
2022-11-05T05:32:46.296Z,77.40
2022-11-05T05:35:13.567Z,77.30
2022-11-05T05:37:40.787Z,77.40
2022-11-05T05:40:09.142Z,77.30
2022-11-05T05:42:41.792Z,77.40
2022-11-05T05:45:11.179Z,77.40
2022-11-05T05:47:38.706Z,77.30
2022-11-05T05:50:06.368Z,77.30
2022-11-05T05:52:33.481Z,77.30
2022-11-05T05:55:00.817Z,77.40
2022-11-05T05:57:27.873Z,77.40
2022-11-05T05:59:54.979Z,77.40
2022-11-05T06:02:23.050Z,77.40
2022-11-05T06:04:50.561Z,77.40
2022-11-05T06:07:17.739Z,77.50
2022-11-05T06:09:44.736Z,77.50
2022-11-05T06:12:11.984Z,77.50
2022-11-05T06:14:39.068Z,77.50
2022-11-05T06:17:08.104Z,77.50
2022-11-05T06:19:35.166Z,77.50
2022-11-05T06:22:02.418Z,77.50
2022-11-05T06:24:29.575Z,77.60
2022-11-05T06:26:56.841Z,77.50
2022-11-05T06:29:23.984Z,77.50
2022-11-05T06:31:51.179Z,77.50
2022-11-05T06:34:18.280Z,77.60
2022-11-05T06:36:45.314Z,77.60
2022-11-05T06:39:13.375Z,77.60
2022-11-05T06:42:03.958Z,77.60
2022-11-05T06:44:28.190Z,77.50
2022-11-05T06:46:55.451Z,77.40
2022-11-05T06:49:25.672Z,77.40
2022-11-05T06:51:53.260Z,77.50
2022-11-05T06:54:20.309Z,77.50
2022-11-05T06:56:47.539Z,77.50
2022-11-05T06:59:14.904Z,77.50
2022-11-05T07:01:42.050Z,77.60
2022-11-05T07:04:11.444Z,77.70
2022-11-05T07:06:38.483Z,77.80
2022-11-05T07:09:05.712Z,77.80
2022-11-05T07:11:32.744Z,77.90
2022-11-05T07:14:01.238Z,77.90
2022-11-05T07:16:28.395Z,77.90
2022-11-05T07:18:56.073Z,77.90
2022-11-05T07:21:23.301Z,77.90
2022-11-05T07:23:50.421Z,78.00
2022-11-05T07:26:17.545Z,78.00
2022-11-05T07:28:44.675Z,78.00
2022-11-05T07:31:12.052Z,78.00
2022-11-05T07:33:39.189Z,78.00
2022-11-05T07:36:06.759Z,77.90
2022-11-05T07:38:34.424Z,77.80
2022-11-05T07:41:02.049Z,77.80
2022-11-05T07:43:29.303Z,77.90
2022-11-05T07:45:56.419Z,77.90
2022-11-05T07:48:23.682Z,77.90
2022-11-05T07:50:53.308Z,77.90
2022-11-05T07:53:21.263Z,77.90
2022-11-05T07:55:48.589Z,77.70
2022-11-05T07:58:15.640Z,77.80
2022-11-05T08:00:43.064Z,77.80
2022-11-05T08:03:18.731Z,77.80
2022-11-05T08:05:48.152Z,78.00
2022-11-05T08:08:18.377Z,78.00
2022-11-05T08:10:45.986Z,78.20
2022-11-05T08:13:14.127Z,78.20
2022-11-05T08:15:42.947Z,78.30
2022-11-05T08:18:17.038Z,78.20
2022-11-05T08:20:45.394Z,78.20
2022-11-05T08:23:12.949Z,78.10
2022-11-05T08:25:40.796Z,78.10
2022-11-05T08:28:11.693Z,78.10
2022-11-05T08:30:38.954Z,78.10
2022-11-05T08:33:12.552Z,78.20
2022-11-05T08:35:40.439Z,78.20
2022-11-05T08:38:10.135Z,78.30
2022-11-05T08:40:37.997Z,78.50
2022-11-05T08:43:07.280Z,78.50
2022-11-05T08:45:38.187Z,78.60
2022-11-05T08:48:07.943Z,78.70
2022-11-05T08:50:36.097Z,78.60
2022-11-05T08:53:04.240Z,78.50
2022-11-05T08:55:32.421Z,78.50
2022-11-05T08:58:06.772Z,78.50
2022-11-05T09:00:37.099Z,78.40
2022-11-05T09:03:07.480Z,78.30
2022-11-05T09:05:38.217Z,78.40
2022-11-05T09:08:14.200Z,78.40
2022-11-05T09:10:41.991Z,78.50
2022-11-05T09:13:16.518Z,78.50
2022-11-05T09:15:45.688Z,78.60
2022-11-05T09:18:14.440Z,78.40
2022-11-05T09:20:41.983Z,78.50
2022-11-05T09:23:10.301Z,78.70
2022-11-05T09:25:37.800Z,79.00
2022-11-05T09:28:16.851Z,79.10
2022-11-05T09:30:50.092Z,79.30
2022-11-05T09:33:20.697Z,79.20
2022-11-05T09:35:48.042Z,79.10
2022-11-05T09:38:15.384Z,79.00
2022-11-05T09:41:01.451Z,78.90
2022-11-05T09:43:43.333Z,78.90
2022-11-05T09:46:25.175Z,78.90
2022-11-05T09:49:39.987Z,78.90
2022-11-05T09:52:31.036Z,78.70
2022-11-05T09:54:59.015Z,78.80
2022-11-05T09:57:39.809Z,78.60
2022-11-05T10:00:09.693Z,78.50
2022-11-05T10:02:59.197Z,78.30
2022-11-05T10:05:28.201Z,78.20
2022-11-05T10:08:05.378Z,78.10
2022-11-05T10:10:44.867Z,78.00
2022-11-05T10:13:37.165Z,78.00
2022-11-05T10:16:48.182Z,78.00
2022-11-05T10:19:24.320Z,77.80
2022-11-05T10:22:09.537Z,77.80
2022-11-05T10:24:47.400Z,77.80
2022-11-05T10:27:36.840Z,77.40
2022-11-05T10:30:04.893Z,77.20
2022-11-05T10:32:37.919Z,77.30
2022-11-05T10:35:09.116Z,77.30
2022-11-05T10:37:40.840Z,77.30
2022-11-05T10:40:34.538Z,77.10
2022-11-05T10:43:21.104Z,77.00
2022-11-05T10:46:22.905Z,76.90
2022-11-05T10:49:22.471Z,77.00
2022-11-05T10:51:57.073Z,76.80
2022-11-05T10:54:30.761Z,76.90
2022-11-05T10:56:57.868Z,76.90
2022-11-05T10:59:29.522Z,76.80
2022-11-05T11:02:22.350Z,76.90
2022-11-05T11:04:54.207Z,76.70
2022-11-05T11:07:26.022Z,76.80
2022-11-05T11:09:53.065Z,76.80
2022-11-05T11:12:27.719Z,76.40
2022-11-05T11:15:16.042Z,76.80
2022-11-05T11:17:43.324Z,76.60
2022-11-05T11:20:32.416Z,76.80
2022-11-05T11:23:00.792Z,76.70
2022-11-05T11:25:58.594Z,76.80
2022-11-05T11:28:49.016Z,76.50
2022-11-05T11:31:26.170Z,76.40
2022-11-05T11:34:02.503Z,76.60
2022-11-05T11:36:45.199Z,76.50
2022-11-05T11:39:20.171Z,76.30
2022-11-05T11:41:53.012Z,76.40
2022-11-05T11:44:27.212Z,76.40
2022-11-05T11:47:02.083Z,76.40
2022-11-05T11:50:00.324Z,76.30
2022-11-05T11:52:32.343Z,76.50
2022-11-05T11:55:21.907Z,76.50
2022-11-05T11:58:05.470Z,76.30
2022-11-05T12:00:40.586Z,76.50
2022-11-05T12:03:26.628Z,76.40
2022-11-05T12:06:29.794Z,76.50
2022-11-05T12:09:06.749Z,76.40
2022-11-05T12:11:48.997Z,76.60
2022-11-05T12:14:43.675Z,76.30
2022-11-05T12:17:59.823Z,76.10
2022-11-05T12:20:47.173Z,75.80
2022-11-05T12:24:04.251Z,76.10
2022-11-05T12:27:15.629Z,75.70
2022-11-05T12:30:07.734Z,75.70
2022-11-05T12:32:41.600Z,75.80
2022-11-05T12:35:18.329Z,75.70
2022-11-05T12:38:03.489Z,75.80
2022-11-05T12:40:58.181Z,75.70
2022-11-05T12:43:50.716Z,75.70
2022-11-05T12:46:51.919Z,75.90
2022-11-05T12:49:19.002Z,76.00
2022-11-05T12:52:15.336Z,76.00
2022-11-05T12:55:09.864Z,75.90
2022-11-05T12:57:42.132Z,75.70
2022-11-05T13:00:19.999Z,75.80
2022-11-05T13:02:54.953Z,75.80
2022-11-05T13:06:04.483Z,76.00
2022-11-05T13:09:02.706Z,76.10
2022-11-05T13:11:44.669Z,76.10
2022-11-05T13:14:18.752Z,76.30
2022-11-05T13:17:14.297Z,76.40
2022-11-05T13:19:54.533Z,76.00
2022-11-05T13:22:48.299Z,75.90
2022-11-05T13:25:31.695Z,76.00
2022-11-05T13:28:38.376Z,76.20
2022-11-05T13:31:13.833Z,76.10
2022-11-05T13:33:44.929Z,75.80
2022-11-05T13:36:38.350Z,75.70
2022-11-05T13:39:23.180Z,75.70
2022-11-05T13:42:27.397Z,75.60
2022-11-05T13:45:22.320Z,75.60
2022-11-05T13:48:23.301Z,76.00
2022-11-05T13:51:25.997Z,76.10
2022-11-05T13:54:33.314Z,76.40
2022-11-05T13:57:24.531Z,76.20
2022-11-05T14:00:02.426Z,75.90
2022-11-05T14:02:57.221Z,75.60
2022-11-05T14:05:32.559Z,74.80
2022-11-05T14:08:08.226Z,75.10
2022-11-05T14:10:46.336Z,75.00
2022-11-05T14:13:38.883Z,75.10
2022-11-05T14:16:23.276Z,74.70
2022-11-05T14:19:20.156Z,75.00
2022-11-05T14:21:55.380Z,75.10
2022-11-05T14:24:40.578Z,74.80
2022-11-05T14:27:08.510Z,75.00
2022-11-05T14:29:43.722Z,75.00
2022-11-05T14:32:45.984Z,75.10
2022-11-05T14:35:16.357Z,74.80
2022-11-05T14:37:56.104Z,75.00
2022-11-05T14:40:26.451Z,74.70
2022-11-05T14:43:14.176Z,74.70
2022-11-05T14:45:53.996Z,74.20
2022-11-05T14:48:38.426Z,74.60
2022-11-05T14:51:37.537Z,74.40
2022-11-05T14:54:44.378Z,74.30
2022-11-05T14:57:41.987Z,74.40
2022-11-05T15:00:36.677Z,74.60
2022-11-05T15:03:29.554Z,74.50
2022-11-05T15:06:24.106Z,74.60
2022-11-05T15:08:51.223Z,74.50
2022-11-05T15:11:32.898Z,74.50
2022-11-05T15:14:21.336Z,74.60
2022-11-05T15:17:31.023Z,74.80
2022-11-05T15:20:09.012Z,74.70
2022-11-05T15:22:47.290Z,74.70
2022-11-05T15:25:53.269Z,74.60
2022-11-05T15:28:41.489Z,74.70
2022-11-05T15:31:14.673Z,74.70
2022-11-05T15:33:44.777Z,74.60
2022-11-05T15:36:31.792Z,74.60
2022-11-05T15:39:28.031Z,74.60
2022-11-05T15:41:47.323Z,74.60
2022-11-05T15:44:33.075Z,74.70
2022-11-05T15:47:17.981Z,74.80
2022-11-05T15:49:59.162Z,74.90
2022-11-05T15:52:36.583Z,74.90
2022-11-05T15:55:14.364Z,74.90
2022-11-05T15:58:04.874Z,75.00
2022-11-05T16:00:36.554Z,75.00
2022-11-05T16:03:38.388Z,75.10
2022-11-05T16:06:09.597Z,75.30
2022-11-05T16:08:36.691Z,75.20
2022-11-05T16:11:04.188Z,75.20
2022-11-05T16:13:41.159Z,75.20
2022-11-05T16:16:14.255Z,75.40
2022-11-05T16:18:43.017Z,75.40
2022-11-05T16:21:20.164Z,75.40
2022-11-05T16:23:59.727Z,75.40
2022-11-05T16:27:02.231Z,75.40
2022-11-05T16:29:36.529Z,75.50
2022-11-05T16:32:19.321Z,75.40
2022-11-05T16:34:59.818Z,75.40
2022-11-05T16:37:28.480Z,75.40
2022-11-05T16:39:56.294Z,75.50
2022-11-05T16:42:23.469Z,75.50
2022-11-05T16:44:52.638Z,75.50
2022-11-05T16:47:21.343Z,75.60
2022-11-05T16:49:49.520Z,75.60
2022-11-05T16:52:17.114Z,75.60
2022-11-05T16:54:44.563Z,75.70
2022-11-05T16:57:38.038Z,75.70
2022-11-05T17:00:07.121Z,75.90
2022-11-05T17:02:34.353Z,75.60
2022-11-05T17:05:01.554Z,75.60
2022-11-05T17:07:28.693Z,75.80
2022-11-05T17:09:56.176Z,75.80
2022-11-05T17:12:23.362Z,75.80
2022-11-05T17:14:50.410Z,75.80
2022-11-05T17:17:17.605Z,75.90
2022-11-05T17:19:45.566Z,75.90
2022-11-05T17:22:12.610Z,75.90
2022-11-05T17:24:39.836Z,75.90
2022-11-05T17:27:06.998Z,75.90
2022-11-05T17:29:34.335Z,75.90
2022-11-05T17:32:01.364Z,75.90
2022-11-05T17:34:28.575Z,75.90
2022-11-05T17:36:55.921Z,75.90
2022-11-05T17:39:28.722Z,75.90
2022-11-05T17:41:58.354Z,75.90
2022-11-05T17:44:25.454Z,75.90
2022-11-05T17:46:52.519Z,75.90
2022-11-05T17:49:19.554Z,75.90
2022-11-05T17:51:46.691Z,75.90
2022-11-05T17:54:13.785Z,75.90
2022-11-05T17:56:44.628Z,76.00
2022-11-05T17:59:12.003Z,76.00
2022-11-05T18:01:43.382Z,76.00
2022-11-05T18:04:10.926Z,76.00
2022-11-05T18:06:39.834Z,76.00
2022-11-05T18:09:09.864Z,76.10
2022-11-05T18:11:37.616Z,76.10
2022-11-05T18:14:05.256Z,76.20
2022-11-05T18:16:32.927Z,76.20
2022-11-05T18:19:00.212Z,76.30
2022-11-05T18:21:27.394Z,76.30
2022-11-05T18:23:54.582Z,76.40
2022-11-05T18:26:21.748Z,76.40
2022-11-05T18:28:48.775Z,76.40
2022-11-05T18:31:23.119Z,76.40
2022-11-05T18:33:51.073Z,76.50
2022-11-05T18:36:24.815Z,76.50
2022-11-05T18:38:52.897Z,76.60
2022-11-05T18:41:21.179Z,76.50
2022-11-05T18:43:48.387Z,76.60
2022-11-05T18:46:36.026Z,76.60
2022-11-05T18:49:03.359Z,76.60
2022-11-05T18:51:30.632Z,76.50
2022-11-05T18:53:57.859Z,76.60
2022-11-05T18:56:25.066Z,76.70
2022-11-05T18:59:14.828Z,76.80
2022-11-05T19:01:42.124Z,76.80
2022-11-05T19:04:09.899Z,76.80
2022-11-05T19:06:37.802Z,76.80
2022-11-05T19:09:08.668Z,76.90
2022-11-05T19:11:36.461Z,76.90
2022-11-05T19:14:03.536Z,76.90
2022-11-05T19:16:32.283Z,76.90
2022-11-05T19:19:02.097Z,77.00
2022-11-05T19:21:29.738Z,77.00
2022-11-05T19:24:01.432Z,77.00
2022-11-05T19:26:29.723Z,77.00
2022-11-05T19:29:02.024Z,77.00
2022-11-05T19:31:30.397Z,77.00
2022-11-05T19:33:57.935Z,77.00
2022-11-05T19:36:25.861Z,77.00
2022-11-05T19:39:03.727Z,77.00
2022-11-05T19:41:31.082Z,77.00
2022-11-05T19:43:59.607Z,76.90
2022-11-05T19:46:29.686Z,76.90
2022-11-05T19:48:57.101Z,77.00
2022-11-05T19:51:27.037Z,77.00
2022-11-05T19:53:55.393Z,77.00
2022-11-05T19:56:31.605Z,77.00
2022-11-05T19:59:00.205Z,77.00
2022-11-05T20:01:29.187Z,77.00
2022-11-05T20:03:59.160Z,77.00
2022-11-05T20:06:32.258Z,77.00
2022-11-05T20:11:54.521Z,77.00
2022-11-05T20:14:22.888Z,77.00
2022-11-05T20:16:50.862Z,77.00
2022-11-05T20:19:21.330Z,77.00
2022-11-05T20:21:49.035Z,77.00
2022-11-05T20:24:24.297Z,76.90
2022-11-05T20:26:56.443Z,76.90
2022-11-05T20:29:30.519Z,76.90
2022-11-05T20:32:02.230Z,76.80
2022-11-05T20:34:30.887Z,76.80
2022-11-05T20:36:58.029Z,76.80
2022-11-05T20:39:25.204Z,76.80
2022-11-05T20:41:53.521Z,76.80
2022-11-05T20:44:20.777Z,76.80
2022-11-05T20:46:47.909Z,76.80
2022-11-05T20:49:17.258Z,76.90
2022-11-05T20:51:46.101Z,76.90
2022-11-05T20:54:13.347Z,76.90
2022-11-05T20:56:40.428Z,76.80
2022-11-05T20:59:07.683Z,76.80
2022-11-05T21:01:35.521Z,76.80
2022-11-05T21:04:04.369Z,76.80
2022-11-05T21:06:32.242Z,76.80
2022-11-05T21:08:59.765Z,76.80
2022-11-05T21:11:26.897Z,76.80
2022-11-05T21:13:55.379Z,76.80
2022-11-05T21:16:22.603Z,76.80
2022-11-05T21:18:49.912Z,76.80
2022-11-05T21:21:20.626Z,76.80
2022-11-05T21:23:48.202Z,76.90
2022-11-05T21:26:17.842Z,77.00
2022-11-05T21:28:45.213Z,77.00
2022-11-05T21:31:12.396Z,77.00
2022-11-05T21:33:39.682Z,77.00
2022-11-05T21:36:12.414Z,77.00
2022-11-05T21:38:41.034Z,77.10
2022-11-05T21:41:10.667Z,77.10
2022-11-05T21:43:40.597Z,77.10
2022-11-05T21:46:07.799Z,77.20
2022-11-05T21:48:34.879Z,77.20
2022-11-05T21:51:20.663Z,77.20
2022-11-05T21:54:06.299Z,77.30
2022-11-05T21:56:52.221Z,77.30
2022-11-05T21:59:41.144Z,77.30
2022-11-05T22:02:11.328Z,77.30
2022-11-05T22:04:49.528Z,77.30
2022-11-05T22:07:21.089Z,77.40
2022-11-05T22:09:49.181Z,77.30
2022-11-05T22:12:16.958Z,77.40
2022-11-05T22:14:44.223Z,77.40
2022-11-05T22:17:13.367Z,77.40
2022-11-05T22:19:40.503Z,77.40
2022-11-05T22:22:07.782Z,77.40
2022-11-05T22:24:36.432Z,77.40
2022-11-05T22:27:12.772Z,77.50
2022-11-05T22:29:40.281Z,77.50
2022-11-05T22:32:07.609Z,77.50
2022-11-05T22:34:34.773Z,77.50
2022-11-05T22:37:02.445Z,77.50
2022-11-05T22:39:29.639Z,77.50
2022-11-05T22:41:58.321Z,77.50
2022-11-05T22:44:27.501Z,77.50
2022-11-05T22:46:55.065Z,77.50
2022-11-05T22:49:22.622Z,77.50
2022-11-05T22:51:50.315Z,77.50
2022-11-05T22:54:17.648Z,77.50
2022-11-05T22:56:45.632Z,77.50
2022-11-05T22:59:15.688Z,77.50
2022-11-05T23:01:45.142Z,77.50
2022-11-05T23:04:14.280Z,77.50
2022-11-05T23:07:00.161Z,77.50
2022-11-05T23:09:52.976Z,77.50
2022-11-05T23:12:29.788Z,77.60
2022-11-05T23:14:59.671Z,77.60
2022-11-05T23:17:45.933Z,77.50
2022-11-05T23:20:41.420Z,77.50
2022-11-05T23:23:31.499Z,77.50
2022-11-05T23:26:21.994Z,77.50
2022-11-05T23:28:49.084Z,77.40
2022-11-05T23:31:45.350Z,77.40
2022-11-05T23:34:12.473Z,77.40
2022-11-05T23:36:58.462Z,77.40
2022-11-05T23:39:25.591Z,77.50
2022-11-05T23:42:11.449Z,77.50
2022-11-05T23:44:57.239Z,77.60
2022-11-05T23:47:42.784Z,77.60
2022-11-05T23:50:09.940Z,77.60
2022-11-05T23:52:37.102Z,77.60
2022-11-05T23:55:04.485Z,77.70
2022-11-05T23:57:31.732Z,77.70
2022-11-05T23:59:58.823Z,77.70
